createdAt,value
2019-02-27T00:00:55.994Z,12.53
2019-02-27T00:03:29.635Z,11.67
2019-02-27T00:06:01.940Z,9.30
2019-02-27T00:08:34.643Z,11.70
2019-02-27T00:11:06.864Z,11.60
2019-02-27T00:13:38.637Z,11.00
2019-02-27T00:16:11.166Z,12.77
2019-02-27T00:18:43.840Z,10.27
2019-02-27T00:21:15.522Z,9.57
2019-02-27T00:23:46.308Z,6.93
2019-02-27T00:26:18.220Z,7.73
2019-02-27T00:28:49.300Z,8.87
2019-02-27T00:31:20.164Z,6.07
2019-02-27T00:33:52.703Z,9.60
2019-02-27T00:36:25.432Z,8.63
2019-02-27T00:38:57.918Z,8.17
2019-02-27T00:41:29.263Z,7.07
2019-02-27T00:44:02.898Z,5.47
2019-02-27T00:46:34.746Z,6.60
2019-02-27T00:49:05.692Z,6.57
2019-02-27T00:51:36.635Z,7.37
2019-02-27T00:54:08.958Z,7.57
2019-02-27T00:56:40.070Z,9.43
2019-02-27T00:59:11.665Z,10.67
2019-02-27T01:01:47.261Z,6.90
2019-02-27T01:04:16.721Z,10.77
2019-02-27T01:06:48.373Z,7.03
2019-02-27T01:09:19.546Z,7.73
2019-02-27T01:11:51.817Z,7.70
2019-02-27T01:14:24.039Z,7.40
2019-02-27T01:16:55.315Z,7.87
2019-02-27T01:19:26.867Z,11.60
2019-02-27T01:21:58.538Z,8.60
2019-02-27T01:24:29.597Z,5.50
2019-02-27T01:27:04.213Z,6.83
2019-02-27T01:29:35.402Z,6.40
2019-02-27T01:32:06.935Z,7.23
2019-02-27T01:34:38.952Z,6.40
2019-02-27T01:37:09.789Z,6.97
2019-02-27T01:39:44.115Z,10.30
2019-02-27T01:42:16.170Z,6.63
2019-02-27T01:44:48.484Z,8.23
2019-02-27T01:47:20.162Z,7.33
2019-02-27T01:49:52.792Z,6.73
2019-02-27T01:52:25.344Z,8.57
2019-02-27T01:54:58.035Z,9.13
2019-02-27T01:57:29.369Z,8.30
2019-02-27T02:00:01.234Z,8.13
2019-02-27T02:02:32.300Z,8.20
2019-02-27T02:05:03.049Z,7.73
2019-02-27T02:07:35.337Z,7.83
2019-02-27T02:10:06.819Z,9.23
2019-02-27T02:12:39.062Z,9.00
2019-02-27T02:16:03.120Z,7.03
2019-02-27T02:19:10.822Z,9.53
2019-02-27T02:22:19.590Z,10.00
2019-02-27T02:25:11.324Z,8.27
2019-02-27T02:28:14.718Z,7.87
2019-02-27T02:31:23.957Z,9.93
2019-02-27T02:34:43.320Z,7.33
2019-02-27T02:37:47.171Z,8.77
2019-02-27T02:41:09.405Z,8.03
2019-02-27T02:44:11.251Z,8.20
2019-02-27T02:47:12.699Z,8.93
2019-02-27T02:50:31.243Z,10.63
2019-02-27T02:53:48.774Z,7.80
2019-02-27T02:56:37.858Z,8.47
2019-02-27T02:59:46.895Z,8.17
2019-02-27T03:02:29.953Z,8.63
2019-02-27T03:05:42.426Z,8.33
2019-02-27T03:08:40.601Z,9.77
2019-02-27T03:11:54.806Z,9.87
2019-02-27T03:15:22.164Z,9.67
2019-02-27T03:18:20.112Z,7.07
2019-02-27T03:21:04.044Z,8.03
2019-02-27T03:23:53.812Z,9.50
2019-02-27T03:26:51.612Z,7.43
2019-02-27T03:30:03.120Z,9.30
2019-02-27T03:33:23.089Z,7.67
2019-02-27T03:36:36.057Z,10.33
2019-02-27T03:39:39.565Z,11.03
2019-02-27T03:42:21.756Z,8.00
2019-02-27T03:45:31.825Z,7.67
2019-02-27T03:48:28.460Z,8.67
2019-02-27T03:51:34.884Z,8.00
2019-02-27T03:54:32.930Z,15.10
2019-02-27T03:57:26.904Z,10.47
2019-02-27T04:00:21.105Z,6.80
2019-02-27T04:03:32.563Z,8.00
2019-02-27T04:06:28.373Z,7.83
2019-02-27T04:09:00.099Z,8.03
2019-02-27T04:11:31.527Z,7.80
2019-02-27T04:14:05.024Z,7.00
2019-02-27T04:16:37.887Z,6.77
2019-02-27T04:19:07.786Z,9.57
2019-02-27T04:21:38.636Z,8.43
2019-02-27T04:24:10.149Z,9.10
2019-02-27T04:26:42.634Z,9.00
2019-02-27T04:29:13.741Z,6.93
2019-02-27T04:31:44.894Z,8.90
2019-02-27T04:34:15.718Z,8.17
2019-02-27T04:36:47.782Z,9.10
2019-02-27T04:39:18.640Z,7.70
2019-02-27T04:41:49.551Z,9.30
2019-02-27T04:44:22.081Z,10.73
2019-02-27T04:46:55.085Z,8.90
2019-02-27T04:49:26.782Z,14.40
2019-02-27T04:51:57.868Z,9.73
2019-02-27T04:54:28.605Z,6.17
2019-02-27T04:56:59.633Z,8.03
2019-02-27T04:59:30.933Z,7.57
2019-02-27T05:02:03.337Z,8.47
2019-02-27T05:04:35.807Z,6.17
2019-02-27T05:07:06.951Z,8.53
2019-02-27T05:09:39.538Z,9.20
2019-02-27T05:12:10.303Z,8.43
2019-02-27T05:14:42.706Z,7.97
2019-02-27T05:17:13.837Z,8.10
2019-02-27T05:19:44.857Z,7.13
2019-02-27T05:22:16.351Z,6.87
2019-02-27T05:24:47.607Z,7.13
2019-02-27T05:27:19.058Z,9.03
2019-02-27T05:29:50.049Z,7.77
2019-02-27T05:32:21.304Z,10.50
2019-02-27T05:34:52.576Z,8.27
2019-02-27T05:37:23.999Z,9.73
2019-02-27T05:39:55.517Z,7.77
2019-02-27T05:42:27.688Z,10.47
2019-02-27T05:44:59.401Z,11.37
2019-02-27T05:47:33.152Z,12.93
2019-02-27T05:50:05.959Z,11.77
2019-02-27T05:52:37.193Z,8.63
2019-02-27T05:55:09.178Z,11.37
2019-02-27T05:57:40.169Z,9.60
2019-02-27T06:00:17.473Z,12.10
2019-02-27T06:02:48.323Z,12.00
2019-02-27T06:05:19.151Z,9.13
2019-02-27T06:07:49.969Z,9.13
2019-02-27T06:10:23.431Z,9.43
2019-02-27T06:12:54.608Z,8.23
2019-02-27T06:15:28.624Z,10.73
2019-02-27T06:17:58.902Z,8.23
2019-02-27T06:20:30.013Z,10.27
2019-02-27T06:23:04.155Z,7.90
2019-02-27T06:25:34.366Z,10.33
2019-02-27T06:28:06.405Z,8.87
2019-02-27T06:30:37.728Z,12.53
2019-02-27T06:33:11.593Z,10.73
2019-02-27T06:35:43.741Z,8.77
2019-02-27T06:38:15.148Z,9.90
2019-02-27T06:40:46.876Z,9.40
2019-02-27T06:43:18.089Z,10.67
2019-02-27T06:45:49.747Z,8.83
2019-02-27T06:48:21.661Z,9.93
2019-02-27T06:50:52.775Z,11.27
2019-02-27T06:53:23.821Z,8.27
2019-02-27T06:55:55.412Z,8.83
2019-02-27T06:58:26.790Z,11.40
2019-02-27T07:00:57.934Z,8.40
2019-02-27T07:03:29.854Z,9.27
2019-02-27T07:06:02.263Z,9.67
2019-02-27T07:08:37.874Z,10.03
2019-02-27T07:11:10.815Z,9.63
2019-02-27T07:13:39.776Z,7.80
2019-02-27T07:16:11.406Z,7.47
2019-02-27T07:18:42.654Z,7.73
2019-02-27T07:21:14.250Z,7.03
2019-02-27T07:23:45.681Z,7.10
2019-02-27T07:26:18.720Z,8.10
2019-02-27T07:28:49.733Z,8.13
2019-02-27T07:31:23.377Z,5.83
2019-02-27T07:33:54.243Z,7.63
2019-02-27T07:36:26.290Z,7.40
2019-02-27T07:38:58.714Z,6.13
2019-02-27T07:41:29.945Z,7.83
2019-02-27T07:44:02.467Z,10.60
2019-02-27T07:46:35.499Z,7.93
2019-02-27T07:49:06.220Z,9.83
2019-02-27T07:51:37.216Z,8.73
2019-02-27T07:54:08.931Z,8.33
2019-02-27T07:56:39.675Z,13.37
2019-02-27T07:59:11.631Z,10.33
2019-02-27T08:01:44.341Z,6.60
2019-02-27T08:04:19.035Z,6.47
2019-02-27T08:06:48.691Z,7.47
2019-02-27T08:09:19.692Z,5.83
2019-02-27T08:11:51.481Z,5.90
2019-02-27T08:14:23.235Z,5.73
2019-02-27T08:16:57.915Z,7.90
2019-02-27T08:19:28.592Z,7.63
2019-02-27T08:21:59.399Z,8.70
2019-02-27T08:24:31.199Z,8.03
2019-02-27T08:27:03.124Z,10.03
2019-02-27T08:29:34.678Z,11.90
2019-02-27T08:32:05.968Z,12.87
2019-02-27T08:34:37.498Z,13.90
2019-02-27T08:37:08.914Z,15.30
2019-02-27T08:39:39.691Z,17.87
2019-02-27T08:42:11.019Z,13.97
2019-02-27T08:44:43.038Z,13.80
2019-02-27T08:47:15.841Z,12.70
2019-02-27T08:49:47.823Z,15.17
2019-02-27T08:52:19.364Z,14.90
2019-02-27T08:54:51.236Z,13.93
2019-02-27T08:57:22.779Z,11.73
2019-02-27T08:59:54.366Z,15.07
2019-02-27T09:02:29.229Z,12.73
2019-02-27T09:04:59.438Z,11.60
2019-02-27T09:07:30.431Z,17.93
2019-02-27T09:10:02.244Z,13.73
2019-02-27T09:12:33.667Z,18.37
2019-02-27T09:15:04.530Z,16.70
2019-02-27T09:17:36.721Z,16.30
2019-02-27T09:20:09.419Z,14.47
2019-02-27T09:22:40.540Z,16.27
2019-02-27T09:25:12.261Z,14.97
2019-02-27T09:27:43.095Z,14.77
2019-02-27T09:30:15.451Z,16.13
2019-02-27T09:32:46.810Z,14.27
2019-02-27T09:35:18.283Z,14.03
2019-02-27T09:37:51.397Z,15.70
2019-02-27T09:40:22.575Z,16.97
2019-02-27T09:42:53.895Z,14.67
2019-02-27T09:45:27.799Z,14.97
2019-02-27T09:47:59.953Z,16.27
2019-02-27T09:50:36.586Z,18.67
2019-02-27T09:53:07.428Z,18.00
2019-02-27T09:55:39.283Z,15.60
2019-02-27T09:58:11.529Z,13.77
2019-02-27T10:00:48.130Z,12.40
2019-02-27T10:03:21.167Z,18.17
2019-02-27T10:05:53.016Z,17.83
2019-02-27T10:08:25.534Z,16.07
2019-02-27T10:10:57.741Z,19.93
2019-02-27T10:13:29.012Z,15.47
2019-02-27T10:16:01.384Z,16.70
2019-02-27T10:18:32.957Z,17.97
2019-02-27T10:21:04.501Z,18.93
2019-02-27T10:23:35.945Z,17.20
2019-02-27T10:26:07.734Z,16.47
2019-02-27T10:28:39.847Z,22.97
2019-02-27T10:31:12.730Z,22.43
2019-02-27T10:33:44.113Z,18.20
2019-02-27T10:36:16.330Z,16.57
2019-02-27T10:38:47.638Z,20.90
2019-02-27T10:41:19.225Z,15.57
2019-02-27T10:43:50.748Z,16.03
2019-02-27T10:46:23.673Z,18.00
2019-02-27T10:48:55.624Z,16.50
2019-02-27T10:51:27.392Z,16.77
2019-02-27T10:54:02.320Z,16.50
2019-02-27T10:56:32.055Z,20.67
2019-02-27T10:59:03.821Z,19.57
2019-02-27T11:01:36.368Z,15.63
2019-02-27T11:04:08.624Z,18.20
2019-02-27T11:06:41.029Z,20.17
2019-02-27T11:09:24.345Z,18.10
2019-02-27T11:11:56.837Z,21.13
2019-02-27T11:14:31.711Z,21.53
2019-02-27T11:17:03.388Z,19.37
2019-02-27T11:19:34.989Z,18.20
2019-02-27T11:22:07.596Z,20.80
2019-02-27T11:24:39.208Z,16.90
2019-02-27T11:27:10.233Z,21.63
2019-02-27T11:29:41.557Z,21.73
2019-02-27T11:32:14.273Z,18.13
2019-02-27T11:34:48.488Z,18.83
2019-02-27T11:37:19.381Z,16.20
2019-02-27T11:39:50.231Z,19.63
2019-02-27T11:42:21.583Z,19.17
2019-02-27T11:44:53.521Z,17.23
2019-02-27T11:47:24.973Z,18.40
2019-02-27T11:49:57.858Z,20.33
2019-02-27T11:52:29.008Z,19.97
2019-02-27T11:55:00.219Z,19.67
2019-02-27T11:57:32.000Z,18.27
2019-02-27T12:00:04.109Z,18.07
2019-02-27T12:02:37.914Z,17.70
2019-02-27T12:05:11.279Z,18.50
2019-02-27T12:07:42.156Z,18.27
2019-02-27T12:10:16.370Z,20.57
2019-02-27T12:12:48.047Z,22.30
2019-02-27T12:15:19.615Z,24.00
2019-02-27T12:17:51.505Z,20.33
2019-02-27T12:20:23.725Z,18.27
2019-02-27T12:22:54.790Z,17.03
2019-02-27T12:25:29.010Z,22.93
2019-02-27T12:27:59.133Z,20.33
2019-02-27T12:30:30.046Z,17.80
2019-02-27T12:33:02.682Z,16.93
2019-02-27T12:35:34.229Z,19.43
2019-02-27T12:38:08.271Z,20.00
2019-02-27T12:40:39.428Z,23.53
2019-02-27T12:43:10.212Z,19.67
2019-02-27T12:45:41.621Z,18.63
2019-02-27T12:48:14.540Z,22.43
2019-02-27T12:50:45.965Z,21.40
2019-02-27T12:53:20.630Z,18.63
2019-02-27T12:55:50.146Z,18.77
2019-02-27T12:58:24.372Z,18.47
2019-02-27T13:00:55.763Z,18.90
2019-02-27T13:03:28.856Z,19.00
2019-02-27T13:06:00.887Z,19.50
2019-02-27T13:08:32.987Z,24.97
2019-02-27T13:11:05.277Z,20.27
2019-02-27T13:13:38.112Z,19.80
2019-02-27T13:16:14.205Z,25.90
2019-02-27T13:18:43.168Z,24.30
2019-02-27T13:21:20.099Z,22.93
2019-02-27T13:23:48.900Z,21.97
2019-02-27T13:26:19.710Z,19.60
2019-02-27T13:28:51.282Z,22.60
2019-02-27T13:31:23.274Z,19.70
2019-02-27T13:33:55.973Z,19.50
2019-02-27T13:36:27.792Z,20.30
2019-02-27T13:38:59.436Z,19.43
2019-02-27T13:41:30.175Z,19.87
2019-02-27T13:44:02.189Z,18.37
2019-02-27T13:46:34.035Z,20.33
2019-02-27T13:49:05.541Z,19.50
2019-02-27T13:51:40.225Z,17.83
2019-02-27T13:54:11.684Z,20.23
2019-02-27T13:56:42.840Z,19.93
2019-02-27T13:59:15.249Z,17.77
2019-02-27T14:01:46.916Z,20.20
2019-02-27T14:04:21.879Z,16.43
2019-02-27T14:06:53.122Z,19.07
2019-02-27T14:09:24.709Z,18.17
2019-02-27T14:11:58.741Z,17.50
2019-02-27T14:14:29.834Z,15.87
2019-02-27T14:17:02.214Z,16.40
2019-02-27T14:19:33.698Z,14.30
2019-02-27T14:22:07.513Z,16.70
2019-02-27T14:24:39.553Z,13.17
2019-02-27T14:27:14.553Z,15.50
2019-02-27T14:29:45.448Z,21.50
2019-02-27T14:32:17.039Z,18.33
2019-02-27T14:34:48.799Z,19.10
2019-02-27T14:37:19.572Z,17.40
2019-02-27T14:39:52.008Z,23.90
2019-02-27T14:42:23.592Z,18.07
2019-02-27T14:44:55.281Z,18.33
2019-02-27T14:47:26.128Z,16.40
2019-02-27T14:49:59.324Z,15.20
2019-02-27T14:52:31.032Z,18.23
2019-02-27T14:55:03.502Z,17.60
2019-02-27T14:57:34.753Z,18.07
2019-02-27T15:00:07.379Z,18.67
2019-02-27T15:02:38.308Z,16.43
2019-02-27T15:05:09.243Z,18.10
2019-02-27T15:07:40.168Z,16.50
2019-02-27T15:10:11.849Z,15.53
2019-02-27T15:12:42.848Z,16.87
2019-02-27T15:15:16.725Z,17.40
2019-02-27T15:17:47.795Z,44.03
2019-02-27T15:20:18.892Z,21.77
2019-02-27T15:22:52.447Z,16.83
2019-02-27T15:25:22.956Z,17.47
2019-02-27T15:27:58.263Z,18.00
2019-02-27T15:30:27.668Z,19.77
2019-02-27T15:33:03.587Z,21.03
2019-02-27T15:35:31.361Z,22.73
2019-02-27T15:38:02.127Z,23.63
2019-02-27T15:40:33.188Z,20.00
2019-02-27T15:43:10.946Z,18.90
2019-02-27T15:45:36.663Z,21.30
2019-02-27T15:48:07.696Z,21.40
2019-02-27T15:50:38.546Z,21.57
2019-02-27T15:53:14.513Z,16.77
2019-02-27T15:55:42.132Z,18.17
2019-02-27T15:58:13.188Z,29.47
2019-02-27T16:00:45.175Z,27.43
2019-02-27T16:03:16.620Z,117.93
2019-02-27T16:05:47.630Z,90.80
2019-02-27T16:08:20.202Z,51.93
2019-02-27T16:10:54.798Z,55.87
2019-02-27T16:13:23.749Z,44.50
2019-02-27T16:15:54.739Z,53.03
2019-02-27T16:18:25.831Z,43.80
2019-02-27T16:20:56.820Z,40.47
2019-02-27T16:23:27.662Z,40.23
2019-02-27T16:25:58.755Z,28.20
2019-02-27T16:28:29.891Z,24.83
2019-02-27T16:31:05.950Z,22.70
2019-02-27T16:33:34.019Z,17.73
2019-02-27T16:36:05.176Z,16.23
2019-02-27T16:38:36.624Z,18.70
2019-02-27T16:41:07.968Z,16.47
2019-02-27T16:43:38.746Z,15.80
2019-02-27T16:46:09.566Z,19.57
2019-02-27T16:48:40.339Z,18.37
2019-02-27T16:51:11.308Z,18.87
2019-02-27T16:53:43.245Z,24.57
2019-02-27T16:56:14.083Z,22.20
2019-02-27T16:58:44.904Z,18.93
2019-02-27T17:01:18.847Z,21.97
2019-02-27T17:03:59.416Z,27.00
2019-02-27T17:06:22.438Z,24.67
2019-02-27T17:08:53.542Z,29.53
2019-02-27T17:11:24.337Z,25.30
2019-02-27T17:13:57.721Z,25.27
2019-02-27T17:16:28.517Z,22.43
2019-02-27T17:19:01.846Z,25.37
2019-02-27T17:21:32.422Z,22.63
2019-02-27T17:24:03.440Z,22.33
2019-02-27T17:26:35.321Z,21.13
2019-02-27T17:29:07.013Z,19.77
2019-02-27T17:31:37.896Z,20.83
2019-02-27T17:34:13.496Z,23.83
2019-02-27T17:36:42.162Z,21.13
2019-02-27T17:39:13.687Z,21.50
2019-02-27T17:41:45.409Z,20.90
2019-02-27T17:44:16.465Z,20.50
2019-02-27T17:46:47.688Z,22.07
2019-02-27T17:49:18.734Z,22.03
2019-02-27T17:51:49.657Z,21.73
2019-02-27T17:54:21.308Z,20.40
2019-02-27T17:56:53.707Z,21.13
2019-02-27T17:59:26.464Z,17.73
2019-02-27T18:01:58.745Z,20.87
2019-02-27T18:04:30.193Z,22.47
2019-02-27T18:07:02.619Z,20.87
2019-02-27T18:09:34.104Z,24.07
2019-02-27T18:12:06.180Z,21.90
2019-02-27T18:14:37.509Z,21.03
2019-02-27T18:17:09.024Z,22.60
2019-02-27T18:19:40.051Z,20.60
2019-02-27T18:22:14.687Z,19.07
2019-02-27T18:24:45.466Z,24.10
2019-02-27T18:27:16.788Z,23.17
2019-02-27T18:29:48.147Z,19.93
2019-02-27T18:32:19.420Z,20.40
2019-02-27T18:34:54.631Z,24.60
2019-02-27T18:37:25.395Z,22.40
2019-02-27T18:39:56.791Z,22.97
2019-02-27T18:42:29.647Z,22.57
2019-02-27T18:45:02.772Z,25.50
2019-02-27T18:47:35.264Z,25.77
2019-02-27T18:50:06.910Z,22.00
2019-02-27T18:52:39.890Z,27.67
2019-02-27T18:55:11.277Z,20.37
2019-02-27T18:57:46.000Z,21.70
2019-02-27T19:00:19.164Z,23.47
2019-02-27T19:02:53.267Z,20.13
2019-02-27T19:05:24.988Z,22.20
2019-02-27T19:07:57.006Z,21.13
2019-02-27T19:10:28.294Z,22.10
2019-02-27T19:13:01.046Z,22.60
2019-02-27T19:15:34.115Z,20.83
2019-02-27T19:18:06.550Z,22.30
2019-02-27T19:20:39.220Z,22.13
2019-02-27T19:23:10.415Z,26.43
2019-02-27T19:25:43.347Z,20.30
2019-02-27T19:28:14.929Z,18.40
2019-02-27T19:30:47.507Z,20.90
2019-02-27T19:33:19.634Z,19.67
2019-02-27T19:35:55.860Z,24.30
2019-02-27T19:38:26.331Z,20.20
2019-02-27T19:40:57.519Z,23.13
2019-02-27T19:43:29.648Z,24.50
2019-02-27T19:46:02.303Z,22.80
2019-02-27T19:48:35.325Z,28.87
2019-02-27T19:51:08.063Z,27.50
2019-02-27T19:53:40.652Z,28.97
2019-02-27T19:56:12.800Z,24.63
2019-02-27T19:58:44.746Z,25.50
2019-02-27T20:01:17.831Z,20.00
2019-02-27T20:03:49.561Z,21.80
2019-02-27T20:06:21.215Z,20.80
2019-02-27T20:08:54.013Z,22.23
2019-02-27T20:11:26.472Z,26.77
2019-02-27T20:14:02.140Z,22.40
2019-02-27T20:16:33.211Z,19.23
2019-02-27T20:19:06.017Z,19.07
2019-02-27T20:21:37.068Z,20.93
2019-02-27T20:24:14.531Z,19.27
2019-02-27T20:26:44.478Z,18.43
2019-02-27T20:29:16.292Z,21.37
2019-02-27T20:31:47.225Z,23.87
2019-02-27T20:34:19.162Z,20.47
2019-02-27T20:36:50.462Z,21.47
2019-02-27T20:39:24.330Z,20.90
2019-02-27T20:41:56.838Z,22.23
2019-02-27T20:44:28.983Z,24.90
2019-02-27T20:47:00.461Z,24.83
2019-02-27T20:49:32.283Z,31.40
2019-02-27T20:52:03.826Z,28.63
2019-02-27T20:54:35.559Z,29.93
2019-02-27T20:57:08.943Z,25.17
2019-02-27T20:59:42.743Z,24.57
2019-02-27T21:02:18.725Z,22.60
2019-02-27T21:04:49.209Z,22.80
2019-02-27T21:07:22.416Z,19.93
2019-02-27T21:09:53.465Z,22.70
2019-02-27T21:12:25.648Z,19.60
2019-02-27T21:14:58.593Z,21.03
2019-02-27T21:17:29.864Z,25.73
2019-02-27T21:20:00.937Z,20.30
2019-02-27T21:22:33.028Z,19.63
2019-02-27T21:25:05.113Z,22.80
2019-02-27T21:27:38.439Z,22.57
2019-02-27T21:30:12.172Z,22.80
2019-02-27T21:32:43.338Z,20.70
2019-02-27T21:35:14.600Z,18.40
2019-02-27T21:37:45.836Z,20.77
2019-02-27T21:40:17.841Z,18.37
2019-02-27T21:42:50.821Z,20.40
2019-02-27T21:45:23.409Z,19.43
2019-02-27T21:47:56.135Z,18.47
2019-02-27T21:50:28.567Z,17.17
2019-02-27T21:53:00.311Z,16.30
2019-02-27T21:55:33.046Z,18.80
2019-02-27T21:58:04.371Z,22.73
2019-02-27T22:00:36.954Z,17.87
2019-02-27T22:03:09.684Z,19.50
2019-02-27T22:05:43.110Z,19.87
2019-02-27T22:08:16.191Z,16.10
2019-02-27T22:10:53.260Z,24.13
2019-02-27T22:13:28.885Z,24.83
2019-02-27T22:15:56.615Z,22.17
2019-02-27T22:18:28.251Z,21.13
2019-02-27T22:21:00.287Z,27.07
2019-02-27T22:23:33.958Z,21.03
2019-02-27T22:26:06.224Z,17.90
2019-02-27T22:28:37.387Z,22.40
2019-02-27T22:31:08.637Z,24.27
2019-02-27T22:33:39.803Z,21.27
2019-02-27T22:36:12.776Z,17.93
2019-02-27T22:38:45.966Z,20.03
2019-02-27T22:41:17.356Z,16.00
2019-02-27T22:43:48.317Z,14.20
2019-02-27T22:46:19.424Z,23.50
2019-02-27T22:48:51.810Z,15.37
2019-02-27T22:51:23.418Z,13.93
2019-02-27T22:53:54.855Z,15.07
2019-02-27T22:56:26.660Z,13.90
2019-02-27T22:58:59.396Z,18.10
2019-02-27T23:01:49.307Z,13.17
2019-02-27T23:04:19.432Z,18.27
2019-02-27T23:06:52.319Z,13.27
2019-02-27T23:09:25.664Z,14.37
2019-02-27T23:11:57.456Z,12.70
2019-02-27T23:14:29.469Z,16.70
2019-02-27T23:17:01.263Z,13.07
2019-02-27T23:19:35.011Z,15.13
2019-02-27T23:22:06.542Z,14.53
2019-02-27T23:24:38.048Z,11.10
2019-02-27T23:27:09.390Z,15.60
2019-02-27T23:29:40.692Z,13.87
2019-02-27T23:32:14.525Z,16.00
2019-02-27T23:34:46.920Z,19.17
2019-02-27T23:37:19.189Z,13.73
2019-02-27T23:39:50.420Z,12.73
2019-02-27T23:42:21.670Z,14.20
2019-02-27T23:44:54.156Z,15.17
2019-02-27T23:47:28.759Z,14.23
2019-02-27T23:49:59.994Z,16.27
2019-02-27T23:52:31.020Z,17.37
2019-02-27T23:55:02.362Z,17.90
2019-02-27T23:57:34.560Z,17.27
